Hiroshima Airport

Airport
ICAO code: 
RJOA
IATA Code: 
HIJ
Summary
ICAO Region: 
APAC
Territory: 
Location: 
Mihara, Hiroshima, Chūgoku
Serving: 
Hiroshima
Elevation: 
1086 ft
Coordinates: 
Aerial View: 
34° 26' 23.162" N, 132° 55' 8.534" E
Metar
Observation
RJOA 090300Z 10005KT 060V180 9999 FEW030 11/01 Q1028
Station
Hiroshima Airport
Date/Time
2021-12-09 03:00:00
Wind direction
100°
Wind speed
05 kts
Lowest cloud amount
few clouds
Temperature
11°C
Dew point
1°C
Humidity
50%
QNH
1028 hPa
Weather condition
n/a

Airport in the city of Mihara, Hiroshima Prefecture, Japan. Located 50 km east of Hiroshima, it is the largest airport in the Chūgoku region.

Climatology

Humid Sub-tropical climate (Köppen climate classification Cfa)

Runways

Designator Length Width Surface Rops
10/28 3000 61 ASP Yes/Yes
Airport map: 
Aerial View: 

Accidents and Serious Incidents at or in the vicinity of RJOA

SKYbrary Partners:

Safety knowledge contributed by: